Time;durP1;ratioP1;P1;durP2;ratioP2;P2;SDS_P1;SDS_P2;PMS_P1;PMS_P2;Temp;Humidity;BMP_temperature;BMP_pressure;BME280_temperature;BME280_humidity;BME280_pressure;Samples;Min_cycle;Max_cycle;Signal;HPM_P1;HPM_P2
2022/12/04 00:01:37;;;;;;;3.67;3.47;;;19.30;40.60;;;;;;4990677;28;20227;-63
2022/12/04 00:04:03;;;;;;;3.40;3.20;;;19.30;40.60;;;;;;4990809;28;20236;-63
2022/12/04 00:06:28;;;;;;;3.90;3.70;;;19.30;40.60;;;;;;4982334;28;20226;-63
2022/12/04 00:08:55;;;;;;;3.67;3.47;;;19.30;40.60;;;;;;4989162;28;20881;-63
2022/12/04 00:11:23;;;;;;;3.60;3.40;;;19.30;40.60;;;;;;4983886;28;20315;-63
2022/12/04 00:13:49;;;;;;;3.73;3.53;;;19.30;40.60;;;;;;4981917;28;21010;-63
2022/12/04 00:16:18;;;;;;;3.30;3.10;;;19.30;40.60;;;;;;4986390;28;20567;-63
2022/12/04 00:18:44;;;;;;;4.57;4.27;;;19.30;40.60;;;;;;4987657;28;20224;-63
2022/12/04 00:21:11;;;;;;;3.67;3.47;;;19.30;40.70;;;;;;4994915;28;20842;-63
2022/12/04 00:23:38;;;;;;;3.83;3.53;;;19.30;40.60;;;;;;4984783;28;20244;-63
2022/12/04 00:26:06;;;;;;;3.77;3.57;;;19.30;40.80;;;;;;4987854;28;21060;-63
2022/12/04 00:28:32;;;;;;;3.87;3.67;;;19.30;40.60;;;;;;4975404;28;20458;-63
2022/12/04 00:30:58;;;;;;;3.30;3.10;;;19.30;40.70;;;;;;4991087;28;20438;-63
2022/12/04 00:33:23;;;;;;;4.57;4.23;;;19.30;40.70;;;;;;4999882;28;20278;-63
2022/12/04 00:35:59;;;;;;;3.70;3.40;;;19.30;41.50;;;;;;4999014;28;20259;-63
2022/12/04 00:38:26;;;;;;;3.80;3.53;;;19.30;40.70;;;;;;5002232;28;20734;-64
2022/12/04 00:40:52;;;;;;;3.07;2.87;;;19.30;40.70;;;;;;5001493;28;20443;-63
2022/12/04 00:43:19;;;;;;;3.50;3.30;;;19.30;40.70;;;;;;4999840;28;20494;-63
2022/12/04 00:45:45;;;;;;;3.97;3.77;;;19.30;40.70;;;;;;4975725;28;21137;-64
2022/12/04 00:48:11;;;;;;;3.50;3.30;;;19.30;40.70;;;;;;4978893;28;21849;-63
2022/12/04 00:50:37;;;;;;;4.40;3.53;;;19.30;40.70;;;;;;4979199;28;20379;-63
2022/12/04 00:53:02;;;;;;;4.90;4.50;;;19.30;40.70;;;;;;4983655;28;20257;-63
2022/12/04 00:55:28;;;;;;;3.33;3.13;;;19.30;40.70;;;;;;4996517;28;20235;-63
2022/12/04 00:57:53;;;;;;;3.70;3.50;;;19.30;40.70;;;;;;4998685;28;20264;-63
2022/12/04 01:00:19;;;;;;;3.70;3.50;;;19.30;40.70;;;;;;4999081;28;20220;-63
2022/12/04 01:02:45;;;;;;;3.40;3.20;;;19.30;40.70;;;;;;4988157;28;20258;-63
2022/12/04 01:05:11;;;;;;;3.40;3.20;;;19.30;40.70;;;;;;4977237;28;20629;-63
2022/12/04 01:07:37;;;;;;;4.20;3.80;;;19.30;40.80;;;;;;4997618;28;20219;-63
2022/12/04 01:10:05;;;;;;;3.93;3.73;;;19.30;40.70;;;;;;4990058;28;20519;-63
2022/12/04 01:12:30;;;;;;;4.20;3.90;;;19.30;40.70;;;;;;4989582;28;20556;-64
2022/12/04 01:14:56;;;;;;;3.77;3.57;;;19.30;40.80;;;;;;4982471;28;20947;-63
2022/12/04 01:17:21;;;;;;;4.87;4.47;;;19.30;40.80;;;;;;4993342;28;20294;-63
2022/12/04 01:19:47;;;;;;;3.37;3.17;;;19.30;40.80;;;;;;4993939;28;20270;-63
2022/12/04 01:22:13;;;;;;;3.60;3.40;;;19.30;40.80;;;;;;4999875;28;20215;-63
2022/12/04 01:24:38;;;;;;;3.93;3.63;;;19.30;40.80;;;;;;5004441;28;20306;-64
2022/12/04 01:27:04;;;;;;;3.53;3.33;;;19.30;40.80;;;;;;5000271;28;20258;-63
2022/12/04 01:29:29;;;;;;;3.43;3.23;;;19.30;40.80;;;;;;5002137;28;20217;-63
2022/12/04 01:31:55;;;;;;;3.83;3.63;;;19.30;40.70;;;;;;5001164;28;20698;-63
2022/12/04 01:34:20;;;;;;;3.90;3.60;;;19.30;40.70;;;;;;5001069;28;20317;-63
2022/12/04 01:36:47;;;;;;;3.87;3.67;;;19.30;40.80;;;;;;5000282;28;20211;-63
2022/12/04 01:39:12;;;;;;;3.70;3.50;;;19.30;40.80;;;;;;4988937;28;20239;-63
2022/12/04 01:41:39;;;;;;;4.20;3.90;;;19.30;40.70;;;;;;4996822;28;20549;-63
2022/12/04 01:44:12;;;;;;;4.00;3.80;;;19.30;40.80;;;;;;4999649;28;20335;-63
2022/12/04 01:46:43;;;;;;;3.10;2.90;;;19.30;40.80;;;;;;4995373;28;20419;-64
2022/12/04 01:49:14;;;;;;;4.13;3.93;;;19.30;40.70;;;;;;4984222;28;20426;-63
2022/12/04 01:51:43;;;;;;;2.83;2.63;;;19.30;40.80;;;;;;4982960;28;20424;-64
2022/12/04 01:54:21;;;;;;;3.77;3.53;;;19.30;40.80;;;;;;4986194;28;20448;-63
2022/12/04 01:56:52;;;;;;;3.53;3.33;;;19.30;40.80;;;;;;5000122;28;20510;-63
2022/12/04 01:59:22;;;;;;;3.97;3.77;;;19.30;40.80;;;;;;5001463;28;20544;-64
2022/12/04 02:01:54;;;;;;;3.90;3.60;;;19.30;40.80;;;;;;4999051;28;20439;-64
2022/12/04 02:04:20;;;;;;;3.33;3.13;;;19.30;40.80;;;;;;5000682;28;20472;-63
2022/12/04 02:06:46;;;;;;;3.50;3.30;;;19.30;40.80;;;;;;5004751;28;20591;-63
2022/12/04 02:09:12;;;;;;;3.53;3.33;;;19.30;40.80;;;;;;5000922;28;20286;-63
2022/12/04 02:12:10;;;;;;;4.17;3.97;;;19.30;40.80;;;;;;5000981;28;20219;-63
2022/12/04 02:14:51;;;;;;;4.43;4.03;;;19.30;40.70;;;;;;4997943;28;20224;-63
2022/12/04 02:17:44;;;;;;;3.77;3.57;;;19.30;40.80;;;;;;5004743;28;20468;-63
2022/12/04 02:20:29;;;;;;;3.87;3.60;;;19.30;40.80;;;;;;4991798;28;21075;-63
2022/12/04 02:23:13;;;;;;;4.17;3.87;;;19.30;40.80;;;;;;4989453;28;20593;-64
2022/12/04 02:25:44;;;;;;;3.83;3.53;;;19.30;40.80;;;;;;4988065;28;20469;-63
2022/12/04 02:28:23;;;;;;;4.10;3.80;;;19.30;40.80;;;;;;4990376;28;20422;-64
2022/12/04 02:30:54;;;;;;;4.00;3.70;;;19.30;40.80;;;;;;4999258;28;20454;-63
2022/12/04 02:33:34;;;;;;;4.20;3.90;;;19.30;40.80;;;;;;4990950;28;20440;-63
2022/12/04 02:36:07;;;;;;;3.80;3.60;;;19.30;40.80;;;;;;4995264;28;20449;-64
2022/12/04 02:38:40;;;;;;;3.70;3.40;;;19.30;40.80;;;;;;4996747;28;20909;-64
2022/12/04 02:41:40;;;;;;;3.80;3.60;;;19.30;40.90;;;;;;4998024;28;20478;-63
2022/12/04 02:44:15;;;;;;;3.97;3.60;;;19.30;40.80;;;;;;4969719;28;20485;-63
2022/12/04 02:46:44;;;;;;;4.43;4.00;;;19.30;40.80;;;;;;4993832;28;21232;-63
2022/12/04 02:49:27;;;;;;;4.30;4.00;;;19.30;40.80;;;;;;5002748;28;20444;-63
2022/12/04 02:51:56;;;;;;;4.30;3.97;;;19.30;40.80;;;;;;5001802;28;20420;-64
2022/12/04 02:54:36;;;;;;;3.87;3.60;;;19.30;40.80;;;;;;5007749;28;20457;-63
2022/12/04 02:57:04;;;;;;;4.30;4.00;;;19.30;40.80;;;;;;5006075;28;20467;-63
2022/12/04 02:59:38;;;;;;;4.03;3.80;;;19.30;40.80;;;;;;5006385;28;20458;-64
2022/12/04 03:02:20;;;;;;;3.70;3.40;;;19.30;40.70;;;;;;5008905;28;20783;-63
2022/12/04 03:04:49;;;;;;;3.73;3.50;;;19.30;40.80;;;;;;5003230;28;20449;-63
2022/12/04 03:07:31;;;;;;;3.97;3.67;;;19.30;40.80;;;;;;5004316;28;20530;-64
2022/12/04 03:10:02;;;;;;;3.70;3.50;;;19.30;40.80;;;;;;5004595;28;20481;-63
2022/12/04 03:12:51;;;;;;;4.10;3.87;;;19.30;40.80;;;;;;5006053;28;20468;-63
2022/12/04 03:15:28;;;;;;;4.17;3.97;;;19.30;40.70;;;;;;4994160;28;20542;-63
2022/12/04 03:18:10;;;;;;;3.40;3.20;;;19.30;40.80;;;;;;4988090;28;20574;-63
2022/12/04 03:20:37;;;;;;;4.10;3.67;;;19.30;40.80;;;;;;4988047;28;20498;-63
2022/12/04 03:23:13;;;;;;;3.97;3.73;;;19.30;40.80;;;;;;4990093;28;20665;-63
2022/12/04 03:25:57;;;;;;;4.27;3.97;;;19.30;40.80;;;;;;4999995;28;20470;-63
2022/12/04 03:28:34;;;;;;;3.43;3.23;;;19.30;40.80;;;;;;4998271;28;20551;-64
2022/12/04 03:31:05;;;;;;;3.93;3.67;;;19.30;40.80;;;;;;4991881;28;20491;-64
2022/12/04 03:33:40;;;;;;;3.50;3.30;;;19.30;40.80;;;;;;4990163;28;20468;-64
2022/12/04 03:36:22;;;;;;;3.30;3.10;;;19.30;40.70;;;;;;4983399;28;20909;-64
2022/12/04 03:39:19;;;;;;;3.40;3.20;;;19.30;40.70;;;;;;5003418;28;20495;-63
2022/12/04 03:41:58;;;;;;;3.70;3.50;;;19.30;40.80;;;;;;5004743;28;20459;-63
2022/12/04 03:44:31;;;;;;;3.83;3.63;;;19.30;40.80;;;;;;4999576;28;20570;-63
2022/12/04 03:47:22;;;;;;;3.57;3.37;;;19.30;40.80;;;;;;4984402;28;20855;-63
2022/12/04 03:50:26;;;;;;;4.00;3.80;;;19.30;40.80;;;;;;4983985;28;20545;-62
2022/12/04 03:53:04;;;;;;;3.67;3.47;;;19.30;40.80;;;;;;4980448;28;20918;-63
2022/12/04 03:55:38;;;;;;;3.50;3.30;;;19.30;40.80;;;;;;4980064;28;20953;-63
2022/12/04 03:58:09;;;;;;;3.93;3.73;;;19.20;40.70;;;;;;4989943;28;20435;-63
2022/12/04 04:00:39;;;;;;;3.77;3.50;;;19.30;40.80;;;;;;4989726;28;21389;-63
2022/12/04 04:03:13;;;;;;;3.30;3.10;;;19.30;40.80;;;;;;4988131;28;20505;-63
2022/12/04 04:05:43;;;;;;;4.00;3.80;;;19.30;40.70;;;;;;4989644;28;20478;-63
2022/12/04 04:08:29;;;;;;;3.87;3.63;;;19.30;40.70;;;;;;4985852;28;20473;-63
2022/12/04 04:11:20;;;;;;;3.57;3.37;;;19.30;40.70;;;;;;4991173;28;20479;-63
2022/12/04 04:25:23;;;;;;;4.00;3.70;;;19.30;40.80;;;;;;4987623;28;21055;-64
2022/12/04 04:27:53;;;;;;;3.90;3.70;;;19.30;40.80;;;;;;4998230;28;20420;-64
2022/12/04 04:30:19;;;;;;;3.67;3.47;;;19.30;40.70;;;;;;5000089;28;20429;-63
2022/12/04 04:32:58;;;;;;;3.70;3.40;;;19.30;40.80;;;;;;5000224;28;20566;-63
2022/12/04 04:35:49;;;;;;;3.73;3.53;;;19.30;40.70;;;;;;5003164;28;20467;-63
2022/12/04 04:38:20;;;;;;;4.00;3.80;;;19.30;40.70;;;;;;4988626;28;20419;-63
2022/12/04 04:41:08;;;;;;;3.43;3.23;;;19.30;40.70;;;;;;5002160;28;20453;-63
2022/12/04 04:43:48;;;;;;;3.90;3.70;;;19.30;40.70;;;;;;5005265;28;20969;-64
2022/12/04 04:46:32;;;;;;;3.77;3.47;;;19.30;40.70;;;;;;5004714;28;20447;-63
2022/12/04 04:49:01;;;;;;;4.10;3.80;;;19.30;40.70;;;;;;5001773;28;20441;-63
2022/12/04 04:51:28;;;;;;;3.87;3.67;;;19.30;40.70;;;;;;5001063;28;20440;-63
2022/12/04 04:53:57;;;;;;;4.20;3.70;;;19.30;40.70;;;;;;4994445;28;21062;-64
2022/12/04 04:56:23;;;;;;;4.73;4.37;;;19.30;40.60;;;;;;4997956;28;20457;-64
2022/12/04 04:58:49;;;;;;;3.30;3.10;;;19.30;40.60;;;;;;4992518;28;20540;-64
2022/12/04 05:01:25;;;;;;;3.83;3.60;;;19.30;40.50;;;;;;4983659;28;20449;-64
2022/12/04 05:03:51;;;;;;;3.87;3.67;;;19.30;40.50;;;;;;4988160;28;20550;-64
2022/12/04 05:06:16;;;;;;;3.60;3.30;;;19.30;40.40;;;;;;4983273;28;20455;-61
2022/12/04 05:08:43;;;;;;;4.07;3.73;;;19.30;40.40;;;;;;4985332;28;20224;-62
2022/12/04 05:11:12;;;;;;;3.60;3.40;;;19.40;40.40;;;;;;4986490;28;20603;-62
2022/12/04 05:13:38;;;;;;;3.83;3.63;;;19.40;40.40;;;;;;4998211;28;20546;-63
2022/12/04 05:16:06;;;;;;;3.83;3.60;;;19.40;40.40;;;;;;5003323;28;20503;-62
2022/12/04 05:18:33;;;;;;;4.00;3.67;;;19.40;40.30;;;;;;5000204;28;20269;-63
2022/12/04 05:21:03;;;;;;;3.93;3.70;;;19.40;40.40;;;;;;5003562;28;20455;-64
2022/12/04 05:23:29;;;;;;;4.27;3.97;;;19.40;40.40;;;;;;5005091;28;20442;-63
2022/12/04 05:26:02;;;;;;;4.17;3.87;;;19.40;40.30;;;;;;4999231;28;20432;-63
2022/12/04 05:28:28;;;;;;;3.80;3.60;;;19.40;40.30;;;;;;4999423;28;20679;-63
2022/12/04 05:31:00;;;;;;;3.40;3.20;;;19.40;40.30;;;;;;5001810;28;20466;-62
2022/12/04 05:33:25;;;;;;;3.10;2.90;;;19.40;40.30;;;;;;4991709;28;20239;-63
2022/12/04 05:36:06;;;;;;;4.77;4.47;;;19.40;40.30;;;;;;4978008;28;20442;-63
2022/12/04 05:38:32;;;;;;;3.90;3.70;;;19.40;40.30;;;;;;4985114;28;20226;-63
2022/12/04 05:41:00;;;;;;;4.37;3.40;;;19.40;40.30;;;;;;4980774;28;20434;-63
2022/12/04 05:43:25;;;;;;;3.77;3.57;;;19.40;40.30;;;;;;4991579;28;20443;-65
2022/12/04 05:45:51;;;;;;;4.27;3.97;;;19.40;40.30;;;;;;4982846;28;21040;-64
2022/12/04 05:48:17;;;;;;;4.67;4.27;;;19.40;40.30;;;;;;4991675;28;20224;-63
2022/12/04 05:50:42;;;;;;;3.57;3.37;;;19.40;40.20;;;;;;5005389;28;20851;-63
2022/12/04 05:53:08;;;;;;;3.73;3.53;;;19.40;40.20;;;;;;4997446;28;20230;-63
2022/12/04 05:55:33;;;;;;;3.70;3.50;;;19.40;40.10;;;;;;5000745;28;20226;-63
2022/12/04 05:57:59;;;;;;;3.27;3.00;;;19.40;40.10;;;;;;4981755;28;20294;-63
2022/12/04 06:00:25;;;;;;;4.10;3.80;;;19.40;40.10;;;;;;4981736;28;20215;-64
2022/12/04 06:02:50;;;;;;;3.90;3.60;;;19.40;40.10;;;;;;4978974;28;20216;-63
2022/12/04 06:05:16;;;;;;;3.77;3.57;;;19.40;40.10;;;;;;4988079;28;20223;-64
2022/12/04 06:07:42;;;;;;;4.37;4.07;;;19.40;40.10;;;;;;4985493;28;20232;-64
2022/12/04 06:10:07;;;;;;;3.60;3.40;;;19.40;40.10;;;;;;4996667;28;20760;-63
2022/12/04 06:12:33;;;;;;;3.33;3.13;;;19.50;40.10;;;;;;5004272;28;20230;-63
2022/12/04 06:14:58;;;;;;;5.10;4.70;;;19.40;40.10;;;;;;5001792;28;20249;-63
2022/12/04 06:17:24;;;;;;;3.30;3.10;;;19.50;40.10;;;;;;5002120;28;20227;-63
2022/12/04 06:19:51;;;;;;;3.93;3.73;;;19.50;40.10;;;;;;4999511;28;20305;-62
2022/12/04 06:22:17;;;;;;;3.40;3.20;;;19.50;40.10;;;;;;4976941;28;20255;-61
2022/12/04 06:24:43;;;;;;;3.47;3.27;;;19.50;40.10;;;;;;4979953;28;21156;-62
2022/12/04 06:27:08;;;;;;;3.60;3.30;;;19.50;40.00;;;;;;4993508;28;20235;-62
2022/12/04 06:29:34;;;;;;;3.30;3.10;;;19.50;40.10;;;;;;5000269;28;20218;-62
2022/12/04 06:31:59;;;;;;;3.50;3.30;;;19.50;40.00;;;;;;4982164;28;20228;-62
2022/12/04 06:34:25;;;;;;;3.60;3.40;;;19.50;40.00;;;;;;4987104;28;20746;-62
2022/12/04 06:36:50;;;;;;;3.47;3.27;;;19.50;40.10;;;;;;4997930;28;20220;-63
2022/12/04 06:39:16;;;;;;;3.80;3.50;;;19.50;40.00;;;;;;5008046;28;20219;-63
2022/12/04 06:41:41;;;;;;;3.77;3.57;;;19.50;40.10;;;;;;4995018;28;21160;-62
2022/12/04 06:44:07;;;;;;;3.53;3.27;;;19.50;40.00;;;;;;4986377;28;20246;-63
2022/12/04 06:46:33;;;;;;;3.73;3.43;;;19.50;40.00;;;;;;4989980;28;20216;-63
2022/12/04 06:48:59;;;;;;;3.87;3.57;;;19.50;40.00;;;;;;4998727;28;20227;-62
2022/12/04 06:51:28;;;;;;;4.40;4.10;;;19.50;40.00;;;;;;4989681;28;20215;-63
2022/12/04 06:53:54;;;;;;;4.13;3.93;;;19.40;40.00;;;;;;4999519;28;21182;-63
2022/12/04 06:56:22;;;;;;;3.70;3.50;;;19.50;40.00;;;;;;5004057;28;20625;-64
2022/12/04 06:58:50;;;;;;;3.67;3.47;;;19.40;40.00;;;;;;5006894;28;20463;-62
2022/12/04 07:01:19;;;;;;;3.40;3.20;;;19.50;40.10;;;;;;5005222;28;20435;-63
2022/12/04 07:03:45;;;;;;;3.30;3.10;;;19.50;40.10;;;;;;4991450;28;20457;-63
2022/12/04 07:06:22;;;;;;;4.00;3.70;;;19.50;40.10;;;;;;4990012;28;20455;-63
2022/12/04 07:08:51;;;;;;;3.70;3.50;;;19.50;40.00;;;;;;4993096;28;20442;-63
2022/12/04 07:11:18;;;;;;;3.80;3.50;;;19.50;40.00;;;;;;4997182;28;20909;-65
2022/12/04 07:13:44;;;;;;;3.60;3.03;;;19.50;40.10;;;;;;4990874;28;20435;-64
2022/12/04 07:16:12;;;;;;;3.23;3.03;;;19.50;40.00;;;;;;5001652;28;20424;-64
2022/12/04 07:18:38;;;;;;;3.60;3.30;;;19.50;40.00;;;;;;5004970;28;20306;-63
2022/12/04 07:21:06;;;;;;;3.17;2.97;;;19.50;40.00;;;;;;5007130;28;20994;-63
2022/12/04 07:23:32;;;;;;;3.60;3.30;;;19.50;39.90;;;;;;5004514;28;20523;-64
2022/12/04 07:26:02;;;;;;;4.27;3.97;;;19.50;39.90;;;;;;4993915;28;20446;-63
2022/12/04 07:28:28;;;;;;;3.73;3.50;;;19.50;39.90;;;;;;4995217;28;20424;-63
2022/12/04 07:30:53;;;;;;;3.37;3.17;;;19.50;39.90;;;;;;4987560;28;21196;-65
2022/12/04 07:33:19;;;;;;;3.20;3.00;;;19.50;39.90;;;;;;4980455;28;20243;-64
2022/12/04 07:35:44;;;;;;;3.10;2.90;;;19.50;39.90;;;;;;4984270;28;20216;-64
2022/12/04 07:38:10;;;;;;;3.57;3.37;;;19.50;39.90;;;;;;4980940;28;20224;-64
2022/12/04 07:40:36;;;;;;;3.13;2.93;;;19.50;39.90;;;;;;4987261;28;20254;-63
2022/12/04 07:43:02;;;;;;;3.00;2.80;;;19.50;39.80;;;;;;4986969;28;20223;-64
2022/12/04 07:45:28;;;;;;;3.47;3.10;;;19.50;39.80;;;;;;5001352;28;20494;-64
2022/12/04 07:47:53;;;;;;;3.43;3.23;;;19.50;39.80;;;;;;5005669;28;20377;-63
2022/12/04 07:50:19;;;;;;;3.50;3.20;;;19.50;39.80;;;;;;4992953;28;20242;-63
2022/12/04 07:52:44;;;;;;;3.20;3.00;;;19.50;39.80;;;;;;4989090;28;20848;-64
2022/12/04 07:55:10;;;;;;;3.27;3.03;;;19.50;39.80;;;;;;5005966;28;20222;-63
2022/12/04 07:57:36;;;;;;;4.53;2.90;;;19.50;39.80;;;;;;4998788;28;20230;-63
2022/12/04 08:00:01;;;;;;;3.30;3.10;;;19.50;39.80;;;;;;5006214;28;20215;-63
2022/12/04 08:02:27;;;;;;;3.00;2.80;;;19.50;39.80;;;;;;4982687;28;20277;-64
2022/12/04 08:04:52;;;;;;;3.30;3.10;;;19.50;39.80;;;;;;4989610;28;20281;-63
2022/12/04 08:07:18;;;;;;;3.20;3.00;;;19.50;39.80;;;;;;4988812;28;20238;-63
2022/12/04 08:09:43;;;;;;;3.23;2.90;;;19.50;40.60;;;;;;5002334;28;20239;-63
2022/12/04 08:12:09;;;;;;;3.33;3.03;;;19.50;39.70;;;;;;4999223;28;20211;-63
2022/12/04 08:14:34;;;;;;;3.53;3.20;;;19.50;39.70;;;;;;5001463;28;21054;-63
2022/12/04 08:17:00;;;;;;;3.60;3.30;;;19.50;39.70;;;;;;4977438;28;20235;-63
2022/12/04 08:19:25;;;;;;;3.67;3.30;;;19.50;39.80;;;;;;4984363;28;20225;-64
2022/12/04 08:21:53;;;;;;;3.40;3.10;;;19.50;39.60;;;;;;4983858;28;20262;-64
2022/12/04 08:24:19;;;;;;;3.30;3.10;;;19.50;39.60;;;;;;4983337;28;20311;-61
2022/12/04 08:26:44;;;;;;;3.40;3.10;;;19.50;39.50;;;;;;4985484;28;20824;-63
2022/12/04 08:29:10;;;;;;;5.10;3.70;;;19.40;38.70;;;;;;4981223;28;20223;-62
2022/12/04 08:31:36;;;;;;;3.50;3.03;;;19.50;39.30;;;;;;4975822;28;20306;-62
2022/12/04 08:34:04;;;;;;;2.67;2.57;;;19.50;40.00;;;;;;4978270;28;21046;-63
2022/12/04 08:36:30;;;;;;;3.63;3.40;;;19.40;39.10;;;;;;4986940;28;20443;-63
2022/12/04 08:38:56;;;;;;;3.67;3.37;;;19.40;39.00;;;;;;4981240;28;20487;-63
2022/12/04 08:41:24;;;;;;;4.13;3.77;;;19.40;38.80;;;;;;4980797;28;20433;-64
2022/12/04 08:43:53;;;;;;;3.60;3.40;;;19.40;38.80;;;;;;4992544;28;20219;-63
2022/12/04 08:46:19;;;;;;;3.97;3.57;;;19.40;38.70;;;;;;5000747;28;20756;-62
2022/12/04 08:48:46;;;;;;;3.83;3.53;;;19.40;38.70;;;;;;4993673;28;20415;-65
2022/12/04 08:51:18;;;;;;;3.97;3.67;;;19.40;38.70;;;;;;4973785;28;20431;-63
2022/12/04 08:53:44;;;;;;;3.97;3.50;;;19.40;38.70;;;;;;5000762;28;21057;-62
2022/12/04 08:56:10;;;;;;;3.47;3.23;;;19.40;38.70;;;;;;4985113;28;20411;-62
2022/12/04 08:58:36;;;;;;;3.37;3.17;;;19.40;38.70;;;;;;4989438;28;20460;-62
2022/12/04 09:01:04;;;;;;;3.53;3.23;;;19.40;38.70;;;;;;4980136;28;20440;-63
2022/12/04 09:03:29;;;;;;;3.70;3.50;;;19.40;38.70;;;;;;4975577;28;20236;-63
2022/12/04 09:05:58;;;;;;;3.30;3.10;;;19.40;38.70;;;;;;4996881;28;20492;-62
2022/12/04 09:08:23;;;;;;;2.77;2.57;;;19.40;38.70;;;;;;4987121;28;20673;-62
2022/12/04 09:10:49;;;;;;;5.00;3.23;;;19.30;39.30;;;;;;4991077;28;20522;-68
2022/12/04 09:13:14;;;;;;;3.17;2.33;;;19.30;38.80;;;;;;4997534;28;21581;-67
2022/12/04 09:15:40;;;;;;;2.77;2.67;;;19.30;38.70;;;;;;4994207;28;20442;-67
2022/12/04 09:18:06;;;;;;;3.27;2.97;;;19.30;38.60;;;;;;4997822;28;20243;-67
2022/12/04 09:20:32;;;;;;;3.03;2.83;;;19.30;38.60;;;;;;4993042;28;20306;-69
2022/12/04 09:22:57;;;;;;;3.00;2.80;;;19.30;38.60;;;;;;4995586;28;20464;-67
2022/12/04 09:25:23;;;;;;;3.00;2.80;;;19.30;38.70;;;;;;4995666;28;20223;-65
2022/12/04 09:27:48;;;;;;;3.10;2.90;;;19.30;38.70;;;;;;5000607;28;20326;-65
2022/12/04 09:30:14;;;;;;;2.83;2.60;;;19.30;38.60;;;;;;5001923;28;20291;-65
2022/12/04 09:32:39;;;;;;;3.10;2.90;;;19.30;38.60;;;;;;4997249;28;20273;-68
2022/12/04 09:35:06;;;;;;;3.17;2.97;;;19.30;38.60;;;;;;4998012;28;20282;-62
2022/12/04 09:37:32;;;;;;;6.73;3.40;;;19.30;38.60;;;;;;4995078;28;20238;-67
2022/12/04 09:39:58;;;;;;;7.13;3.10;;;19.30;38.60;;;;;;4991868;28;20423;-68
2022/12/04 09:42:42;;;;;;;3.90;3.00;;;19.30;38.60;;;;;;4998835;28;20467;-67
2022/12/04 09:45:15;;;;;;;8.87;4.00;;;19.30;38.70;;;;;;4998931;28;20322;-66
2022/12/04 09:47:45;;;;;;;3.53;3.23;;;19.30;38.60;;;;;;4995981;28;20439;-67
2022/12/04 09:50:34;;;;;;;3.67;2.90;;;19.30;38.60;;;;;;4979842;28;20513;-64
2022/12/04 09:53:10;;;;;;;2.87;2.63;;;19.40;38.70;;;;;;4990792;28;20440;-66
2022/12/04 09:55:44;;;;;;;3.20;3.00;;;19.30;38.60;;;;;;5001862;28;20434;-63
2022/12/04 09:58:19;;;;;;;3.20;3.00;;;19.30;38.70;;;;;;4986845;28;20945;-65
2022/12/04 10:00:48;;;;;;;3.53;3.23;;;19.30;38.60;;;;;;4976524;28;20495;-66
2022/12/04 10:03:20;;;;;;;3.20;2.67;;;19.40;38.70;;;;;;4970124;28;21588;-65
2022/12/04 10:06:05;;;;;;;3.87;3.03;;;19.40;38.70;;;;;;4978827;28;20946;-65
2022/12/04 10:08:42;;;;;;;2.80;2.60;;;19.40;38.70;;;;;;4984344;28;20475;-65
2022/12/04 10:11:36;;;;;;;3.80;3.00;;;19.40;38.70;;;;;;4979908;28;20476;-65
2022/12/04 10:14:13;;;;;;;3.20;2.80;;;19.40;38.70;;;;;;4991467;28;20488;-65
2022/12/04 10:16:51;;;;;;;3.20;2.90;;;19.40;38.70;;;;;;4993547;28;20449;-65
2022/12/04 10:20:00;;;;;;;2.97;2.77;;;19.40;38.70;;;;;;4997633;28;20434;-65
2022/12/04 10:23:01;;;;;;;3.50;2.73;;;19.40;38.80;;;;;;4976516;28;20941;-65
2022/12/04 10:25:28;;;;;;;4.10;2.90;;;19.40;38.70;;;;;;4982940;28;20473;-65
2022/12/04 10:28:15;;;;;;;2.80;2.60;;;19.40;38.70;;;;;;4979548;28;20432;-65
2022/12/04 10:30:42;;;;;;;3.13;2.93;;;19.40;38.70;;;;;;4976448;28;20959;-65
2022/12/04 10:33:19;;;;;;;4.07;3.00;;;19.40;38.70;;;;;;4982920;28;20460;-65
2022/12/04 10:35:50;;;;;;;2.83;2.63;;;19.40;38.70;;;;;;4982448;28;20443;-65
2022/12/04 10:38:37;;;;;;;3.57;3.23;;;19.40;38.70;;;;;;4986956;28;20934;-65
2022/12/04 10:41:29;;;;;;;3.30;3.00;;;19.40;38.70;;;;;;4981884;28;20807;-64
2022/12/04 10:43:55;;;;;;;2.97;2.77;;;19.40;38.70;;;;;;4980980;28;20484;-65
2022/12/04 10:46:27;;;;;;;4.73;2.73;;;19.40;38.70;;;;;;4978969;28;20833;-65
2022/12/04 10:49:02;;;;;;;2.83;2.63;;;19.40;38.80;;;;;;4986235;28;20184;-65
2022/12/04 10:51:34;;;;;;;2.73;2.53;;;19.40;38.80;;;;;;4982455;28;20445;-65
2022/12/04 10:54:00;;;;;;;3.10;2.90;;;19.40;38.90;;;;;;4981568;28;20460;-65
2022/12/04 10:56:25;;;;;;;3.43;3.13;;;19.40;38.80;;;;;;4980865;28;20844;-65
2022/12/04 10:58:56;;;;;;;2.30;2.20;;;19.40;38.80;;;;;;4982138;28;20709;-65
2022/12/04 11:01:23;;;;;;;3.00;2.80;;;19.40;39.00;;;;;;4981392;28;20224;-65
2022/12/04 11:03:57;;;;;;;2.80;2.60;;;19.40;39.00;;;;;;4979847;28;20454;-65
2022/12/04 11:06:25;;;;;;;2.40;2.20;;;19.40;39.00;;;;;;4981853;28;20460;-65
2022/12/04 11:08:52;;;;;;;2.67;2.47;;;19.40;39.10;;;;;;4978190;28;20870;-65
2022/12/04 11:11:26;;;;;;;3.37;2.93;;;19.40;39.00;;;;;;4979565;28;20486;-65
2022/12/04 11:14:12;;;;;;;2.93;2.63;;;19.40;39.10;;;;;;4982807;28;20426;-65
2022/12/04 11:16:40;;;;;;;3.57;3.37;;;19.40;39.20;;;;;;4982887;28;20438;-65
2022/12/04 11:19:29;;;;;;;2.63;2.43;;;19.40;39.10;;;;;;4981986;28;20557;-65
2022/12/04 11:22:23;;;;;;;2.60;2.40;;;19.40;39.10;;;;;;4982632;28;20416;-65
2022/12/04 11:24:57;;;;;;;3.10;2.90;;;19.40;39.10;;;;;;4981706;28;20509;-65
2022/12/04 11:27:26;;;;;;;2.60;2.40;;;19.40;39.10;;;;;;4981936;28;20423;-65
2022/12/04 11:29:52;;;;;;;3.40;3.10;;;19.40;39.10;;;;;;4981453;28;20409;-65
2022/12/04 11:32:25;;;;;;;4.67;2.93;;;19.40;39.20;;;;;;4982904;28;20419;-65
2022/12/04 11:34:53;;;;;;;8.00;2.60;;;19.40;39.80;;;;;;4981087;28;20416;-65
2022/12/04 11:37:32;;;;;;;2.60;2.40;;;19.40;39.10;;;;;;4981863;28;20409;-65
2022/12/04 11:39:58;;;;;;;4.67;2.67;;;19.40;39.20;;;;;;4982977;28;20442;-65
2022/12/04 11:42:26;;;;;;;2.73;2.53;;;19.40;39.10;;;;;;4983204;28;20788;-65
2022/12/04 11:45:01;;;;;;;2.70;2.50;;;19.40;39.10;;;;;;4983540;28;20515;-65
2022/12/04 11:47:30;;;;;;;2.80;2.60;;;19.40;39.10;;;;;;4980612;28;20467;-65
2022/12/04 11:50:00;;;;;;;4.43;3.40;;;19.40;39.10;;;;;;4978074;28;20933;-64
2022/12/04 11:52:57;;;;;;;2.73;2.53;;;19.50;39.20;;;;;;4978681;28;20415;-65
2022/12/04 11:55:42;;;;;;;2.63;2.50;;;19.50;39.10;;;;;;4980050;28;20901;-65
2022/12/04 11:58:35;;;;;;;2.80;2.60;;;19.50;39.20;;;;;;4979633;28;20989;-65
2022/12/04 12:01:12;;;;;;;2.33;2.23;;;19.40;39.20;;;;;;4979959;28;21376;-65
2022/12/04 12:04:13;;;;;;;2.60;2.47;;;19.50;39.10;;;;;;4978609;28;20465;-64
2022/12/04 12:07:07;;;;;;;6.30;3.20;;;19.40;39.10;;;;;;4980602;28;20516;-64
2022/12/04 12:09:47;;;;;;;2.80;2.60;;;19.50;39.20;;;;;;4975947;28;20435;-64
2022/12/04 12:12:28;;;;;;;8.40;3.33;;;19.40;39.10;;;;;;4977165;28;20413;-66
2022/12/04 12:15:21;;;;;;;4.20;3.67;;;19.50;39.10;;;;;;4980850;28;20412;-69
2022/12/04 12:18:32;;;;;;;7.80;3.20;;;19.40;39.00;;;;;;4979802;28;20412;-64
2022/12/04 12:21:10;;;;;;;4.63;2.90;;;19.40;38.80;;;;;;4974536;28;20517;-64
2022/12/04 12:24:03;;;;;;;3.50;3.20;;;19.40;38.80;;;;;;4982460;28;20943;-64
2022/12/04 12:26:44;;;;;;;4.47;3.00;;;19.40;38.70;;;;;;4981470;28;20507;-64
2022/12/04 12:29:25;;;;;;;2.90;2.70;;;19.40;38.70;;;;;;4996854;28;20784;-64
2022/12/04 12:31:57;;;;;;;2.80;2.60;;;19.40;38.70;;;;;;4981097;28;20826;-63
2022/12/04 12:34:42;;;;;;;7.43;2.80;;;19.40;38.70;;;;;;4980400;28;20530;-63
2022/12/04 12:37:29;;;;;;;9.83;3.10;;;19.40;38.70;;;;;;4982547;28;20412;-63
2022/12/04 12:40:38;;;;;;;3.00;2.80;;;19.40;38.70;;;;;;4999714;28;21054;-64
2022/12/04 12:43:30;;;;;;;4.30;3.07;;;19.30;38.60;;;;;;4977879;28;20539;-64
2022/12/04 12:46:03;;;;;;;4.40;3.00;;;19.30;38.60;;;;;;4978987;28;20966;-63
2022/12/04 12:48:50;;;;;;;3.23;2.93;;;19.30;38.60;;;;;;4981501;28;21010;-64
2022/12/04 12:51:49;;;;;;;3.40;3.10;;;19.30;38.60;;;;;;4980619;28;20519;-63
2022/12/04 12:54:27;;;;;;;2.97;2.77;;;19.30;38.60;;;;;;4983046;28;20464;-64
2022/12/04 12:56:58;;;;;;;2.87;2.67;;;19.30;38.60;;;;;;4984125;28;20557;-64
2022/12/04 12:59:26;;;;;;;3.20;3.00;;;19.30;38.60;;;;;;4982295;28;20422;-65
2022/12/04 13:02:21;;;;;;;4.23;3.20;;;19.30;39.30;;;;;;4982832;28;20411;-65
2022/12/04 13:04:52;;;;;;;3.07;2.87;;;19.30;38.70;;;;;;4978181;28;20469;-63
2022/12/04 13:07:30;;;;;;;3.40;3.03;;;19.30;38.60;;;;;;4981637;28;20499;-63
2022/12/04 13:10:05;;;;;;;3.10;2.90;;;19.30;38.60;;;;;;4983891;28;20492;-62
2022/12/04 13:12:57;;;;;;;2.80;2.60;;;19.30;38.60;;;;;;4980637;28;20424;-63
2022/12/04 13:15:30;;;;;;;3.10;2.90;;;19.30;38.60;;;;;;4971647;28;20424;-62
2022/12/04 13:17:57;;;;;;;3.83;3.60;;;19.30;38.60;;;;;;4974422;28;20466;-64
2022/12/04 13:20:29;;;;;;;3.10;2.90;;;19.30;38.60;;;;;;4975319;28;20458;-62
2022/12/04 13:23:02;;;;;;;3.10;2.90;;;19.30;38.60;;;;;;4979454;28;21246;-62
2022/12/04 13:25:51;;;;;;;3.27;3.03;;;19.30;38.60;;;;;;4988306;28;20444;-62